sensor_id;sensor_type;location;lat;lon;timestamp;pressure;altitude;pressure_sealevel;temperature;humidity
71642;BME280;60657;50.122;14.468;2022-09-09T00:01:35;98001.69147526714;;;16.772716868848704;78.82299534599832
71642;BME280;60657;50.122;14.468;2022-09-09T00:05:09;97995.92942536346;;;16.746013580529485;78.82871747920959
71642;BME280;60657;50.122;14.468;2022-09-09T00:08:37;97998.44421645167;;;16.756694895857173;78.88784618905927
71642;BME280;60657;50.122;14.468;2022-09-09T00:12:02;98001.96256416495;;;16.695277332722974;79.09956511787594
71642;BME280;60657;50.122;14.468;2022-09-09T00:15:26;98012.66473048495;;;16.746013580529485;79.02327000839246
71642;BME280;60657;50.122;14.468;2022-09-09T00:18:54;98000.95900972055;;;16.754024567025255;78.90882734416724
71642;BME280;60657;50.122;14.468;2022-09-09T00:22:19;98004.34217218183;;;16.697947661554892;79.10719462882429
71642;BME280;60657;50.122;14.468;2022-09-09T00:25:40;98007.12573440713;;;16.652552071412224;79.21400778210116
71642;BME280;60657;50.122;14.468;2022-09-09T00:29:10;98015.44790712863;;;16.64721141374838;79.27504386968795
71642;BME280;60657;50.122;14.468;2022-09-09T00:32:39;98021.47698651126;;;16.599145494773786;79.34561684596018
71642;BME280;60657;50.122;14.468;2022-09-09T00:35:56;98011.46406015949;;;16.599145494773786;79.39711604486152
71642;BME280;60657;50.122;14.468;2022-09-09T00:42:51;98010.72880309675;;;16.56176089112688;79.50202182040131
71642;BME280;60657;50.122;14.468;2022-09-09T00:46:28;98015.71307672246;;;16.56176089112688;79.50965133134966
71642;BME280;60657;50.122;14.468;2022-09-09T00:49:59;98022.51936430648;;;16.492332341496912;79.57831692988479
71642;BME280;60657;50.122;14.468;2022-09-09T00:53:22;98023.34284615003;;;16.56176089112688;79.48104066529335
71642;BME280;60657;50.122;14.468;2022-09-09T00:56:53;98018.53217792022;;;16.481651026169224;79.59357595178149
71642;BME280;60657;50.122;14.468;2022-09-09T01:00:22;98022.73611755544;;;16.4789806973373;79.66033417257954
71642;BME280;60657;50.122;14.468;2022-09-09T01:03:42;98016.8852019923;;;16.446936751354237;79.73090714885176
71642;BME280;60657;50.122;14.468;2022-09-09T01:07:08;98025.24983550665;;;16.428244449530787;79.79194323643854
71642;BME280;60657;50.122;14.468;2022-09-09T01:10:34;98028.58712653058;;;16.430914778362705;79.87396047913329
71642;BME280;60657;50.122;14.468;2022-09-09T01:14:02;98030.97157968068;;;16.49500267032883;79.66987106126497
71642;BME280;60657;50.122;14.468;2022-09-09T01:17:34;98029.41070095848;;;16.420233463035018;79.8854047455558
71642;BME280;60657;50.122;14.468;2022-09-09T01:21:00;98026.11642445125;;;16.380178530556194;80.04180971999695
71642;BME280;60657;50.122;14.468;2022-09-09T01:24:30;98027.9349089847;;;16.29205767910277;80.41947051194019
71642;BME280;60657;50.122;14.468;2022-09-09T01:27:56;98023.77425554948;;;16.294728007934694;80.11429007400626
71642;BME280;60657;50.122;14.468;2022-09-09T01:31:18;98020.56511333786;;;16.211947814145113;80.50720988784619
71642;BME280;60657;50.122;14.468;2022-09-09T01:34:38;98027.3234722123;;;16.235980773632413;80.26115815976196
71642;BME280;60657;50.122;14.468;2022-09-09T01:37:59;98028.9285069221;;;16.34813458457313;80.04180971999695
71642;BME280;60657;50.122;14.468;2022-09-09T01:41:15;98018.17911477998;;;16.278706034943163;79.95788509956512
71642;BME280;60657;50.122;14.468;2022-09-09T01:44:31;98024.81030060057;;;16.28938735027085;80.00366216525521
71642;BME280;60657;50.122;14.468;2022-09-09T01:47:48;98027.40772598363;;;16.28137636377508;79.95216296635385
71642;BME280;60657;50.122;14.468;2022-09-09T01:51:04;98022.29713116665;;;16.300068665598538;79.81673914702067
71642;BME280;60657;50.122;14.468;2022-09-09T01:54:20;98008.95037964644;;;16.278706034943163;79.84534981307698
71642;BME280;60657;50.122;14.468;2022-09-09T01:57:41;98008.95037964644;;;16.31609063859007;79.78240634775311
71642;BME280;60657;50.122;14.468;2022-09-09T02:01:12;98012.49829709955;;;16.198596169985507;79.88349736781872
71642;BME280;60657;50.122;14.468;2022-09-09T02:04:40;98024.89467175207;;;16.26268406195163;79.87396047913329
71642;BME280;60657;50.122;14.468;2022-09-09T02:08:00;98026.75147237007;;;16.174563210498206;80.18486305027848
71642;BME280;60657;50.122;14.468;2022-09-09T02:11:25;98015.26141941451;;;16.11047531853208;80.49385824368657
71642;BME280;60657;50.122;14.468;2022-09-09T02:14:46;98016.90876086158;;;16.12916762035554;80.4614328221561
71642;BME280;60657;50.122;14.468;2022-09-09T02:18:08;98021.93376147785;;;16.126497291523613;80.39085984588388
71642;BME280;60657;50.122;14.468;2022-09-09T02:21:28;98020.16192855862;;;16.16388189517052;80.11238269626917
71642;BME280;60657;50.122;14.468;2022-09-09T02:24:47;98014.27126740645;;;16.16388189517052;79.91020065613795
71642;BME280;60657;50.122;14.468;2022-09-09T02:28:06;98016.20909106336;;;16.107804989700163;80.196307316701
71642;BME280;60657;50.122;14.468;2022-09-09T02:31:26;98019.74978938275;;;16.0517280842298;80.3565270466163
71642;BME280;60657;50.122;14.468;2022-09-09T02:34:45;98018.10225310136;;;16.027695124742507;80.45189593347067
71642;BME280;60657;50.122;14.468;2022-09-09T02:38:07;98017.35968884286;;;15.987640192263676;80.44998855573358
71642;BME280;60657;50.122;14.468;2022-09-09T02:41:30;98030.74286256277;;;15.958266575112532;80.38132295719845
71642;BME280;60657;50.122;14.468;2022-09-09T02:44:48;98029.05484665534;;;15.990310521095594;80.34889753566796
71642;BME280;60657;50.122;14.468;2022-09-09T02:48:05;98029.13526398648;;;15.958266575112532;80.42137788967727
71642;BME280;60657;50.122;14.468;2022-09-09T02:51:33;98033.37486110079;;;15.947585259784844;80.56633859769589
71642;BME280;60657;50.122;14.468;2022-09-09T02:54:58;98022.46401195592;;;15.944914930952926;80.57015335317006
71642;BME280;60657;50.122;14.468;2022-09-09T02:58:21;98028.39142581109;;;15.920881971465626;80.63881895170519
71642;BME280;60657;50.122;14.468;2022-09-09T03:01:38;98030.98265407232;;;15.894178683146407;80.73990997177081
71642;BME280;60657;50.122;14.468;2022-09-09T03:04:53;98024.27195277454;;;15.915541313801782;80.62737468528267
71642;BME280;60657;50.122;14.468;2022-09-09T03:08:09;98026.07866114631;;;15.846112764171814;80.91348134584572
71642;BME280;60657;50.122;14.468;2022-09-09T03:11:25;98026.94211748184;;;15.79804684519722;81.10040436408026
71642;BME280;60657;50.122;14.468;2022-09-09T03:14:40;98032.86730292384;;;15.811398489356833;81.05653467612726
71642;BME280;60657;50.122;14.468;2022-09-09T03:17:56;98033.88625065122;;;15.704585336079958;81.36934462500953
71642;BME280;60657;50.122;14.468;2022-09-09T03:21:12;98035.61177783232;;;15.707255664911877;81.23201342793926
71642;BME280;60657;50.122;14.468;2022-09-09T03:24:28;98033.21653068363;;;15.672541390096896;81.2568093385214
71642;BME280;60657;50.122;14.468;2022-09-09T03:27:43;98026.46986054713;;;15.731288624399177;81.29686427100023
71642;BME280;60657;50.122;14.468;2022-09-09T03:30:59;98035.61177783232;;;15.731288624399177;81.27779049362935
71642;BME280;60657;50.122;14.468;2022-09-09T03:34:17;98034.55449786538;;;15.830090791180282;80.93636987869077
71642;BME280;60657;50.122;14.468;2022-09-09T03:37:33;98032.86730292384;;;15.838101777676052;80.8009460593576
71642;BME280;60657;50.122;14.468;2022-09-09T03:40:49;98035.61177783232;;;15.717936980239564;81.16716258487831
71642;BME280;60657;50.122;14.468;2022-09-09T03:44:06;98041.53448669163;;;15.699244678416115;81.20149538414587
71642;BME280;60657;50.122;14.468;2022-09-09T03:47:22;98044.86943640056;;;15.717936980239564;81.14808880750743
71642;BME280;60657;50.122;14.468;2022-09-09T03:50:37;98036.58965678052;;;15.643167772945752;81.3445487144274
71642;BME280;60657;50.122;14.468;2022-09-09T03:53:53;98039.88619579667;;;15.728618295567252;81.16716258487831
71642;BME280;60657;50.122;14.468;2022-09-09T03:57:09;98035.45662532533;;;15.776684214541845;80.96116578927291
71642;BME280;60657;50.122;14.468;2022-09-09T04:00:25;98034.51532565204;;;15.843442435339895;80.73228046082247
71642;BME280;60657;50.122;14.468;2022-09-09T04:03:40;98029.61041476301;;;15.782024872205689;80.7837796597238
71642;BME280;60657;50.122;14.468;2022-09-09T04:06:56;98030.5512673708;;;15.728618295567252;80.86388952468147
71642;BME280;60657;50.122;14.468;2022-09-09T04:10:12;98037.10472704364;;;15.808728160524907;80.75135423819333
71642;BME280;60657;50.122;14.468;2022-09-09T04:13:29;98038.83067102126;;;15.771343556878001;80.90775921263447
71642;BME280;60657;50.122;14.468;2022-09-09T04:16:45;98027.7660637209;;;15.733958953231095;80.90203707942321
71642;BME280;60657;50.122;14.468;2022-09-09T04:20:01;98035.37852417515;;;15.784695201037614;80.81048294804303
71642;BME280;60657;50.122;14.468;2022-09-09T04:23:18;98036.12408368084;;;15.832761120012208;80.66933699549858
71642;BME280;60657;50.122;14.468;2022-09-09T04:26:35;98033.65206240045;;;15.819409475852595;80.6369115739681
71642;BME280;60657;50.122;14.468;2022-09-09T04:29:51;98025.79961482083;;;15.934233615625239;80.34126802471961
71642;BME280;60657;50.122;14.468;2022-09-09T04:33:07;98027.88413730325;;;15.816739147020677;80.34699015793088
71642;BME280;60657;50.122;14.468;2022-09-09T04:36:23;98027.44734985539;;;15.944914930952926;80.22301060502022
71642;BME280;60657;50.122;14.468;2022-09-09T04:39:38;98029.01450663689;;;15.990310521095594;79.8281834134432
71642;BME280;60657;50.122;14.468;2022-09-09T04:42:54;98033.91723867688;;;16.041046768902113;79.68322270542458
71642;BME280;60657;50.122;14.468;2022-09-09T04:46:09;98035.7666344495;;;15.958266575112532;79.89494163424125
71642;BME280;60657;50.122;14.468;2022-09-09T04:49:25;98038.43803066407;;;15.880827038986801;80.05897611963073
71642;BME280;60657;50.122;14.468;2022-09-09T04:52:41;98040.75037806702;;;15.98496986343175;79.83199816891737
71642;BME280;60657;50.122;14.468;2022-09-09T04:56:01;98048.1661331025;;;16.022354467078664;79.65270466163119
71642;BME280;60657;50.122;14.468;2022-09-09T04:59:17;98045.89378084471;;;15.995651178759438;79.83199816891737
71642;BME280;60657;50.122;14.468;2022-09-09T05:02:36;98047.54184045621;;;15.98496986343175;79.80910963607232
71642;BME280;60657;50.122;14.468;2022-09-09T05:05:52;98044.38235180841;;;16.16388189517052;79.20828564888991
71642;BME280;60657;50.122;14.468;2022-09-09T05:09:07;98042.23719801886;;;16.04371709773404;79.6069275959411
71642;BME280;60657;50.122;14.468;2022-09-09T05:12:23;98049.2296097018;;;16.011673151750976;79.7537956816968
71642;BME280;60657;50.122;14.468;2022-09-09T05:15:40;98044.20601022056;;;16.022354467078664;79.78622110322728
71642;BME280;60657;50.122;14.468;2022-09-09T05:18:55;98050.67826792528;;;16.107804989700163;79.5039291981384
71642;BME280;60657;50.122;14.468;2022-09-09T05:22:11;98051.83844821803;;;16.284046692607006;79.17395284962234
71642;BME280;60657;50.122;14.468;2022-09-09T05:25:27;98054.39240711751;;;16.227969787136644;79.17586022735942
71642;BME280;60657;50.122;14.468;2022-09-09T05:28:42;98052.62111727902;;;16.254673075455862;79.05188067444877
71642;BME280;60657;50.122;14.468;2022-09-09T05:31:58;98061.31004216791;;;16.171892881666288;79.6069275959411
71642;BME280;60657;50.122;14.468;2022-09-09T05:35:14;98063.07901256662;;;16.190585183489738;79.46196688792249
71642;BME280;60657;50.122;14.468;2022-09-09T05:38:30;98064.88720275082;;;16.142519264515144;79.80720225833524
71642;BME280;60657;50.122;14.468;2022-09-09T05:41:46;98058.37371563049;;;16.142519264515144;79.6641489280537
71642;BME280;60657;50.122;14.468;2022-09-09T05:45:02;98066.45556207237;;;16.27336537727932;79.2845807583734
71642;BME280;60657;50.122;14.468;2022-09-09T05:48:18;98046.27569682835;;;16.260013733119706;79.341802090486
71642;BME280;60657;50.122;14.468;2022-09-09T05:51:34;98047.92355156902;;;16.225299458304725;79.50965133134966
71642;BME280;60657;50.122;14.468;2022-09-09T05:54:50;98052.2055148236;;;16.16388189517052;79.92927443350881
71642;BME280;60657;50.122;14.468;2022-09-09T05:58:05;98058.67572789607;;;16.2466620889601;79.41809719996948
71642;BME280;60657;50.122;14.468;2022-09-09T06:01:21;98061.18841989587;;;16.252002746623944;79.3112840466926
71642;BME280;60657;50.122;14.468;2022-09-09T06:04:39;98069.79884307345;;;16.465629053177693;78.73907072556649
71642;BME280;60657;50.122;14.468;2022-09-09T06:07:54;98069.37702421345;;;16.556420233463037;78.48920424200809
71642;BME280;60657;50.122;14.468;2022-09-09T06:11:10;98060.7091461405;;;16.660563057907986;78.04669260700389
71642;BME280;60657;50.122;14.468;2022-09-09T06:14:28;98073.23868562447;;;16.609826810101474;78.08102540627146
71642;BME280;60657;50.122;14.468;2022-09-09T06:17:44;98070.6373987576;;;16.695277332722974;77.73960479133288
71642;BME280;60657;50.122;14.468;2022-09-09T06:21:00;98065.65147172884;;;16.63118944075685;77.64995803768979
71642;BME280;60657;50.122;14.468;2022-09-09T06:24:17;98080.69628708561;;;16.64721141374838;78.00282291905089
71642;BME280;60657;50.122;14.468;2022-09-09T06:27:33;98080.99533937984;;;16.844815747310598;77.56984817273212
71642;BME280;60657;50.122;14.468;2022-09-09T06:30:48;98087.31768290482;;;16.948958571755547;76.76874952315556
71642;BME280;60657;50.122;14.468;2022-09-09T06:34:12;98075.60432516357;;;17.27473868925002;76.23086900129702
71642;BME280;60657;50.122;14.468;2022-09-09T06:37:28;98079.83409596131;;;17.60852979324025;75.00823987182422
71642;BME280;60657;50.122;14.468;2022-09-09T06:40:50;98080.84828606482;;;17.776760509651332;74.22240024414435
71642;BME280;60657;50.122;14.468;2022-09-09T06:44:06;98092.47186576542;;;17.808804455634395;73.84283207446403
71642;BME280;60657;50.122;14.468;2022-09-09T06:47:22;98080.50156144796;;;18.038452735179675;74.45319295033188
71642;BME280;60657;50.122;14.468;2022-09-09T06:50:37;98078.80868003385;;;18.51110093842985;71.59784847791256
71642;BME280;60657;50.122;14.468;2022-09-09T06:53:53;98071.53916958565;;;18.91966124971389;70.37140459296559
71642;BME280;60657;50.122;14.468;2022-09-09T06:57:11;98072.90710713246;;;18.836881055924316;70.50873579003586
71642;BME280;60657;50.122;14.468;2022-09-09T07:00:26;98064.37657409032;;;19.181353475242233;68.96566720073243
71642;BME280;60657;50.122;14.468;2022-09-09T07:03:42;98063.91518462313;;;19.242771038376446;68.868390936141
71642;BME280;60657;50.122;14.468;2022-09-09T07:07:01;98059.68745287655;;;19.51514457923247;69.2651255054551
71642;BME280;60657;50.122;14.468;2022-09-09T07:10:17;98062.7736143094;;;19.73411154345007;67.51415274280919
71642;BME280;60657;50.122;14.468;2022-09-09T07:13:33;98072.87926320673;;;19.52048523689632;67.7640192263676
71642;BME280;60657;50.122;14.468;2022-09-09T07:16:50;98070.31370402925;;;19.43770504310673;68.60708018616006
71642;BME280;60657;50.122;14.468;2022-09-09T07:20:06;98062.23219364895;;;20.17738612954909;66.52613107499809
71642;BME280;60657;50.122;14.468;2022-09-09T07:23:22;98076.32580164152;;;20.172045471885255;66.14465552758068
71642;BME280;60657;50.122;14.468;2022-09-09T07:26:38;98062.98511339184;;;20.198748760204467;65.20813305867094
71642;BME280;60657;50.122;14.468;2022-09-09T07:29:54;98064.94817565393;;;19.97978179598688;66.6291294728008
71642;BME280;60657;50.122;14.468;2022-09-09T07:33:10;98066.6548961731;;;20.17738612954909;65.53620202944991
71642;BME280;60657;50.122;14.468;2022-09-09T07:36:26;98058.92278660648;;;20.489814602883953;65.54955367360952
71642;BME280;60657;50.122;14.468;2022-09-09T07:39:43;98066.0924133558;;;20.965133134966052;63.932097352559694
71642;BME280;60657;50.122;14.468;2022-09-09T07:42:59;98069.02871051437;;;20.828946364538027;64.17624170290685
71642;BME280;60657;50.122;14.468;2022-09-09T07:46:16;98063.49169441238;;;21.071946288242927;63.495307850766764
71642;BME280;60657;50.122;14.468;2022-09-09T07:49:35;98065.23265606815;;;21.39238574807355;62.636987869077586
71642;BME280;60657;50.122;14.468;2022-09-09T07:52:52;98064.25508549188;;;22.140077821011673;61.48874647135119
71642;BME280;60657;50.122;14.468;2022-09-09T07:56:10;98068.12634133767;;;22.281605249103535;59.34485389486534
71642;BME280;60657;50.122;14.468;2022-09-09T07:59:27;98055.4233860042;;;22.594033722438397;59.465018692301825
71642;BME280;60657;50.122;14.468;2022-09-09T08:02:43;98055.34738796206;;;22.874418249790182;60.07728694590676
71642;BME280;60657;50.122;14.468;2022-09-09T08:06:00;98056.79630894915;;;22.636758983749147;59.19035629816129
71642;BME280;60657;50.122;14.468;2022-09-09T08:09:17;98062.88057809082;;;22.377737087052722;59.3505760280766
71642;BME280;60657;50.122;14.468;2022-09-09T08:12:32;98063.27693088376;;;22.655451285572596;58.454108491645684
71642;BME280;60657;50.122;14.468;2022-09-09T08:15:48;98057.09185865302;;;22.92782482642862;57.69497215228504
71642;BME280;60657;50.122;14.468;2022-09-09T08:19:04;98051.46119694214;;;23.22156099794003;56.71076523994812
71642;BME280;60657;50.122;14.468;2022-09-09T08:22:20;98062.44267234213;;;23.20820935378042;56.140459296559094
71642;BME280;60657;50.122;14.468;2022-09-09T08:25:36;98065.62982378654;;;23.53665980010682;55.98977645532921
71642;BME280;60657;50.122;14.468;2022-09-09T08:28:52;98062.41918973616;;;23.728923476005193;56.29495689326314
71642;BME280;60657;50.122;14.468;2022-09-09T08:32:09;98069.42515467407;;;23.889143205920504;54.870145723659114
71642;BME280;60657;50.122;14.468;2022-09-09T08:35:25;98067.44463201164;;;23.990615701533528;54.70801861600671
71642;BME280;60657;50.122;14.468;2022-09-09T08:38:41;98075.58545593535;;;23.787670710307466;54.90257114518959
71642;BME280;60657;50.122;14.468;2022-09-09T08:42:02;98073.33682303362;;;23.38445105668727;55.728465705348285
71642;BME280;60657;50.122;14.468;2022-09-09T08:45:33;98070.47265647445;;;23.389791714351105;56.20149538414588
71642;BME280;60657;50.122;14.468;2022-09-09T08:49:15;98064.0577060057;;;23.69153887235828;55.73609521629663
71642;BME280;60657;50.122;14.468;2022-09-09T08:52:53;98054.97899036483;;;24.329747463187616;54.93499656672007
71642;BME280;60657;50.122;14.468;2022-09-09T08:56:18;98058.9855368631;;;24.27634088654918;52.59845883878843
71642;BME280;60657;50.122;14.468;2022-09-09T08:59:38;98061.09055257772;;;24.377813382162202;51.873655298695354
71642;BME280;60657;50.122;14.468;2022-09-09T09:02:55;98052.83740024928;;;24.337758449683378;51.2919050888838
71642;BME280;60657;50.122;14.468;2022-09-09T09:06:26;98055.676939755;;;24.67689021133745;50.670099946593425
71642;BME280;60657;50.122;14.468;2022-09-09T09:09:57;98058.67994735563;;;24.71160448615244;51.370107576104374
71642;BME280;60657;50.122;14.468;2022-09-09T09:13:26;98060.7983778503;;;24.13748378728924;52.201724269474326
71642;BME280;60657;50.122;14.468;2022-09-09T09:16:51;98045.20286985592;;;24.36446173800259;51.73632410162509
71642;BME280;60657;50.122;14.468;2022-09-09T09:20:12;98046.49301259559;;;24.562066071564814;51.343404287785155
71642;BME280;60657;50.122;14.468;2022-09-09T09:23:32;98042.67622849208;;;24.674219882505525;51.00961318379492
71642;BME280;60657;50.122;14.468;2022-09-09T09:26:56;98038.573169564;;;24.935912108033875;50.36682688639658
71642;BME280;60657;50.122;14.468;2022-09-09T09:30:13;98039.16145079219;;;25.26436255436026;50.87800411993591
71642;BME280;60657;50.122;14.468;2022-09-09T09:33:33;98027.82608996298;;;25.71564812695506;49.61722743572137
71642;BME280;60657;50.122;14.468;2022-09-09T09:37:07;98027.10557811121;;;25.704966811627372;48.90196078431372
71642;BME280;60657;50.122;14.468;2022-09-09T09:40:32;98016.5984936449;;;26.212329289692534;48.84092469672694
71642;BME280;60657;50.122;14.468;2022-09-09T09:43:53;98023.5700657794;;;26.596856641489282;47.18532082093538
71642;BME280;60657;50.122;14.468;2022-09-09T09:47:11;98007.30269698467;;;27.08285648889907;45.94934004730297
71642;BME280;60657;50.122;14.468;2022-09-09T09:50:29;98005.5130027335;;;27.229724574654767;44.219348439765014
71642;BME280;60657;50.122;14.468;2022-09-09T09:53:46;97996.79427873243;;;27.534142061493853;44.60082398718242
71642;BME280;60657;50.122;14.468;2022-09-09T09:57:10;97993.41359503701;;;27.734416723888003;44.022888532845045
71642;BME280;60657;50.122;14.468;2022-09-09T10:00:31;97994.97809237965;;;27.870603494316015;44.1029983978027
71642;BME280;60657;50.122;14.468;2022-09-09T10:03:50;97989.27976960359;;;28.377965972381176;43.137865262836655
71642;BME280;60657;50.122;14.468;2022-09-09T10:07:09;97993.89701980975;;;27.9186694132906;41.35065232318608
71642;BME280;60657;50.122;14.468;2022-09-09T10:10:27;97983.59079741717;;;28.37529564354925;42.33104448004883
71642;BME280;60657;50.122;14.468;2022-09-09T10:14:00;97981.77437256355;;;27.651636530098415;43.06157015335317
71642;BME280;60657;50.122;14.468;2022-09-09T10:17:31;97979.10295841435;;;27.419317921721216;43.24467841611353
71642;BME280;60657;50.122;14.468;2022-09-09T10:20:58;97983.7773836473;;;27.67299916075379;43.79209582665751
71642;BME280;60657;50.122;14.468;2022-09-09T10:24:27;97966.307690954;;;27.974746318760964;42.40161745632105
71642;BME280;60657;50.122;14.468;2022-09-09T10:28:10;97964.11285631373;;;28.20439459830625;41.055008773937594
71642;BME280;60657;50.122;14.468;2022-09-09T10:32:26;97950.07030094879;;;29.101625085831998;39.9773403524834
71642;BME280;60657;50.122;14.468;2022-09-09T10:35:52;97965.90644261398;;;28.855954833295186;40.20241092545968
71642;BME280;60657;50.122;14.468;2022-09-09T10:39:24;97967.32051909325;;;28.559548332951863;41.240024414435034
71642;BME280;60657;50.122;14.468;2022-09-09T10:42:50;97960.2851836294;;;27.835889219501027;42.8803692683299
71642;BME280;60657;50.122;14.468;2022-09-09T10:46:12;97950.89384312554;;;27.71305409323263;43.189364461738
71642;BME280;60657;50.122;14.468;2022-09-09T10:49:46;97943.92289717225;;;27.78248264286259;44.068665598535134
71642;BME280;60657;50.122;14.468;2022-09-09T10:53:23;97949.66072672987;;;27.841229877164878;43.21225299458305
71642;BME280;60657;50.122;14.468;2022-09-09T10:56:51;97948.07717907487;;;27.718394750896465;43.26947432669566
71642;BME280;60657;50.122;14.468;2022-09-09T11:00:15;97943.78564029172;;;28.36728465705349;41.13321126115816
71642;BME280;60657;50.122;14.468;2022-09-09T11:03:34;97936.00165607597;;;28.548867017624175;41.045471885252155
71642;BME280;60657;50.122;14.468;2022-09-09T11:06:56;97931.213420664;;;28.8452735179675;39.374608987563896
71642;BME280;60657;50.122;14.468;2022-09-09T11:10:16;97934.26437686541;;;29.02418554970626;38.81765468833448
71642;BME280;60657;50.122;14.468;2022-09-09T11:13:41;97940.52940370233;;;28.709086747539487;38.19012741283284
71642;BME280;60657;50.122;14.468;2022-09-09T11:17:05;97939.36563490599;;;28.19638361181049;39.290684367132066
71642;BME280;60657;50.122;14.468;2022-09-09T11:20:26;97943.21101973645;;;28.3699549858854;39.88197146562905
71642;BME280;60657;50.122;14.468;2022-09-09T11:23:45;97940.52940370233;;;28.879987792782487;39.12092774853132
71642;BME280;60657;50.122;14.468;2022-09-09T11:27:10;97952.39570669748;;;28.247119859617;40.652552071412224
71642;BME280;60657;50.122;14.468;2022-09-09T11:30:34;97947.7819315434;;;27.240405889982455;42.45120927748531
71642;BME280;60657;50.122;14.468;2022-09-09T11:34:13;97950.97187235557;;;26.19096665903716;48.75700007629511
71642;BME280;60657;50.122;14.468;2022-09-09T11:37:50;97977.28399321246;;;25.080109864957663;53.66086823834592
71642;BME280;60657;50.122;14.468;2022-09-09T11:41:19;97970.85730852126;;;24.337758449683378;56.598229953459985
71642;BME280;60657;50.122;14.468;2022-09-09T11:44:41;97967.91592578025;;;23.878461890592817;58.97291523613336
71642;BME280;60657;50.122;14.468;2022-09-09T11:47:58;97973.93129273027;;;23.619439993896393;60.22987716487373
71642;BME280;60657;50.122;14.468;2022-09-09T11:51:25;97974.56931845978;;;23.40848401617457;61.29610131990539
71642;BME280;60657;50.122;14.468;2022-09-09T11:54:46;97969.68244671164;;;23.200198367284656;62.7247272449836
71642;BME280;60657;50.122;14.468;2022-09-09T11:58:03;97966.75406339006;;;22.965209430075532;63.13862821393148
71642;BME280;60657;50.122;14.468;2022-09-09T12:01:33;97985.43036538493;;;22.92782482642862;63.44190127412833
71642;BME280;60657;50.122;14.468;2022-09-09T12:04:56;97981.65602489024;;;22.692835889219495;64.97352559700923
71642;BME280;60657;50.122;14.468;2022-09-09T12:08:20;97989.14748735023;;;22.48187991149767;66.83894102388037
71642;BME280;60657;50.122;14.468;2022-09-09T12:11:43;97986.99282660111;;;21.883726253147174;69.78583962767986